<?xml version="1.0" encoding="UTF-8" standalone="no" ?>
<gpx xmlns="http://www.topografix.com/GPX/1/1" xmlns:xsi="http://www.w3.org/2001/XMLSchema-instance" xsi:schemaLocation="http://www.topografix.com/GPX/1/1 http://www.topografix.com/GPX/1/1/gpx.xsd" version="1.1" creator="VisuGPX - https://www.visugpx.com">
  <metadata>
    <name>Rocher du Caire</name>
    <desc><![CDATA[Bibliothèque Ripatons. Départ des ruines de l'abbaye de Bodon, Rocher du Caire, Rocher de St Auban Col de Pensier]]></desc>
  </metadata>
  <trk>
    <name><![CDATA[Rocher du Quaire]]></name>
    <trkseg>
      <trkpt lat="44.42875" lon="5.32852">
        <ele>630</ele>
        <time>2015-11-05T19:10:00+01:00</time>
      </trkpt>
      <trkpt lat="44.429" lon="5.33015">
        <ele>639</ele>
        <time>2015-11-05T19:10:05+01:00</time>
      </trkpt>
      <trkpt lat="44.42928" lon="5.33053">
        <ele>643</ele>
        <time>2015-11-05T19:10:10+01:00</time>
      </trkpt>
      <trkpt lat="44.42933" lon="5.33106">
        <ele>642</ele>
        <time>2015-11-05T19:10:15+01:00</time>
      </trkpt>
      <trkpt lat="44.4297" lon="5.33144">
        <ele>647</ele>
        <time>2015-11-05T19:10:20+01:00</time>
      </trkpt>
      <trkpt lat="44.42982" lon="5.33177">
        <ele>649</ele>
        <time>2015-11-05T19:10:25+01:00</time>
      </trkpt>
      <trkpt lat="44.42962" lon="5.3326">
        <ele>648</ele>
        <time>2015-11-05T19:10:30+01:00</time>
      </trkpt>
      <trkpt lat="44.42957" lon="5.33357">
        <ele>650</ele>
        <time>2015-11-05T19:10:35+01:00</time>
      </trkpt>
      <trkpt lat="44.43011" lon="5.33468">
        <ele>668</ele>
        <time>2015-11-05T19:10:40+01:00</time>
      </trkpt>
      <trkpt lat="44.42993" lon="5.33508">
        <ele>667</ele>
        <time>2015-11-05T19:10:45+01:00</time>
      </trkpt>
      <trkpt lat="44.42988" lon="5.33559">
        <ele>676</ele>
        <time>2015-11-05T19:10:50+01:00</time>
      </trkpt>
      <trkpt lat="44.42941" lon="5.33544">
        <ele>670</ele>
        <time>2015-11-05T19:10:55+01:00</time>
      </trkpt>
      <trkpt lat="44.42896" lon="5.33546">
        <ele>668</ele>
        <time>2015-11-05T19:11:00+01:00</time>
      </trkpt>
      <trkpt lat="44.42871" lon="5.33582">
        <ele>673</ele>
        <time>2015-11-05T19:11:05+01:00</time>
      </trkpt>
      <trkpt lat="44.42818" lon="5.33572">
        <ele>668</ele>
        <time>2015-11-05T19:11:10+01:00</time>
      </trkpt>
      <trkpt lat="44.42754" lon="5.33621">
        <ele>670</ele>
        <time>2015-11-05T19:11:15+01:00</time>
      </trkpt>
      <trkpt lat="44.42686" lon="5.33658">
        <ele>669</ele>
        <time>2015-11-05T19:11:20+01:00</time>
      </trkpt>
      <trkpt lat="44.42651" lon="5.33708">
        <ele>672</ele>
        <time>2015-11-05T19:11:25+01:00</time>
      </trkpt>
      <trkpt lat="44.42629" lon="5.33759">
        <ele>677</ele>
        <time>2015-11-05T19:11:30+01:00</time>
      </trkpt>
      <trkpt lat="44.42574" lon="5.33851">
        <ele>685</ele>
        <time>2015-11-05T19:11:35+01:00</time>
      </trkpt>
      <trkpt lat="44.42483" lon="5.33901">
        <ele>688</ele>
        <time>2015-11-05T19:11:40+01:00</time>
      </trkpt>
      <trkpt lat="44.42466" lon="5.3393">
        <ele>691</ele>
        <time>2015-11-05T19:11:45+01:00</time>
      </trkpt>
      <trkpt lat="44.42402" lon="5.33995">
        <ele>698</ele>
        <time>2015-11-05T19:11:50+01:00</time>
      </trkpt>
      <trkpt lat="44.42358" lon="5.34021">
        <ele>698</ele>
        <time>2015-11-05T19:11:55+01:00</time>
      </trkpt>
      <trkpt lat="44.423" lon="5.34131">
        <ele>708</ele>
        <time>2015-11-05T19:12:00+01:00</time>
      </trkpt>
      <trkpt lat="44.42223" lon="5.34183">
        <ele>711</ele>
        <time>2015-11-05T19:12:05+01:00</time>
      </trkpt>
      <trkpt lat="44.42167" lon="5.34297">
        <ele>720</ele>
        <time>2015-11-05T19:12:10+01:00</time>
      </trkpt>
      <trkpt lat="44.42124" lon="5.3436">
        <ele>726</ele>
        <time>2015-11-05T19:12:15+01:00</time>
      </trkpt>
      <trkpt lat="44.42083" lon="5.34431">
        <ele>734</ele>
        <time>2015-11-05T19:12:20+01:00</time>
      </trkpt>
      <trkpt lat="44.42023" lon="5.34511">
        <ele>741</ele>
        <time>2015-11-05T19:12:25+01:00</time>
      </trkpt>
      <trkpt lat="44.41851" lon="5.34514">
        <ele>733</ele>
        <time>2015-11-05T19:12:30+01:00</time>
      </trkpt>
      <trkpt lat="44.41777" lon="5.34547">
        <ele>732</ele>
        <time>2015-11-05T19:12:35+01:00</time>
      </trkpt>
      <trkpt lat="44.4171" lon="5.3455">
        <ele>731</ele>
        <time>2015-11-05T19:12:40+01:00</time>
      </trkpt>
      <trkpt lat="44.41676" lon="5.34526">
        <ele>729</ele>
        <time>2015-11-05T19:12:45+01:00</time>
      </trkpt>
      <trkpt lat="44.41607" lon="5.34536">
        <ele>727</ele>
        <time>2015-11-05T19:12:50+01:00</time>
      </trkpt>
      <trkpt lat="44.41567" lon="5.34538">
        <ele>702</ele>
        <time>2015-11-05T19:12:55+01:00</time>
      </trkpt>
      <trkpt lat="44.41555" lon="5.34623">
        <ele>683</ele>
        <time>2015-11-05T19:13:00+01:00</time>
      </trkpt>
      <trkpt lat="44.41561" lon="5.34719">
        <ele>693</ele>
        <time>2015-11-05T19:13:05+01:00</time>
      </trkpt>
      <trkpt lat="44.41551" lon="5.34763">
        <ele>681</ele>
        <time>2015-11-05T19:13:10+01:00</time>
      </trkpt>
      <trkpt lat="44.41562" lon="5.3483">
        <ele>696</ele>
        <time>2015-11-05T19:13:15+01:00</time>
      </trkpt>
      <trkpt lat="44.41557" lon="5.34879">
        <ele>689</ele>
        <time>2015-11-05T19:13:20+01:00</time>
      </trkpt>
      <trkpt lat="44.41574" lon="5.3493">
        <ele>700</ele>
        <time>2015-11-05T19:13:25+01:00</time>
      </trkpt>
      <trkpt lat="44.41656" lon="5.34939">
        <ele>745</ele>
        <time>2015-11-05T19:13:30+01:00</time>
      </trkpt>
      <trkpt lat="44.41769" lon="5.34972">
        <ele>773</ele>
        <time>2015-11-05T19:13:35+01:00</time>
      </trkpt>
      <trkpt lat="44.42018" lon="5.34967">
        <ele>792</ele>
        <time>2015-11-05T19:13:40+01:00</time>
      </trkpt>
      <trkpt lat="44.42082" lon="5.34973">
        <ele>793</ele>
        <time>2015-11-05T19:13:45+01:00</time>
      </trkpt>
      <trkpt lat="44.42171" lon="5.34945">
        <ele>801</ele>
        <time>2015-11-05T19:13:50+01:00</time>
      </trkpt>
      <trkpt lat="44.42279" lon="5.34939">
        <ele>817</ele>
        <time>2015-11-05T19:13:55+01:00</time>
      </trkpt>
      <trkpt lat="44.42354" lon="5.34955">
        <ele>821</ele>
        <time>2015-11-05T19:14:00+01:00</time>
      </trkpt>
      <trkpt lat="44.42413" lon="5.3493">
        <ele>834</ele>
        <time>2015-11-05T19:14:05+01:00</time>
      </trkpt>
      <trkpt lat="44.42456" lon="5.34933">
        <ele>836</ele>
        <time>2015-11-05T19:14:10+01:00</time>
      </trkpt>
      <trkpt lat="44.42513" lon="5.34919">
        <ele>845</ele>
        <time>2015-11-05T19:14:15+01:00</time>
      </trkpt>
      <trkpt lat="44.42645" lon="5.34902">
        <ele>853</ele>
        <time>2015-11-05T19:14:20+01:00</time>
      </trkpt>
      <trkpt lat="44.42866" lon="5.34868">
        <ele>868</ele>
        <time>2015-11-05T19:14:25+01:00</time>
      </trkpt>
      <trkpt lat="44.42882" lon="5.3484">
        <ele>881</ele>
        <time>2015-11-05T19:14:30+01:00</time>
      </trkpt>
      <trkpt lat="44.43031" lon="5.34798">
        <ele>893</ele>
        <time>2015-11-05T19:14:35+01:00</time>
      </trkpt>
      <trkpt lat="44.43095" lon="5.34776">
        <ele>903</ele>
        <time>2015-11-05T19:14:40+01:00</time>
      </trkpt>
      <trkpt lat="44.43211" lon="5.34776">
        <ele>916</ele>
        <time>2015-11-05T19:14:45+01:00</time>
      </trkpt>
      <trkpt lat="44.43249" lon="5.34745">
        <ele>935</ele>
        <time>2015-11-05T19:14:50+01:00</time>
      </trkpt>
      <trkpt lat="44.43288" lon="5.34721">
        <ele>931</ele>
        <time>2015-11-05T19:14:55+01:00</time>
      </trkpt>
      <trkpt lat="44.43374" lon="5.34677">
        <ele>950</ele>
        <time>2015-11-05T19:15:00+01:00</time>
      </trkpt>
      <trkpt lat="44.43413" lon="5.34675">
        <ele>960</ele>
        <time>2015-11-05T19:15:05+01:00</time>
      </trkpt>
      <trkpt lat="44.43451" lon="5.34707">
        <ele>957</ele>
        <time>2015-11-05T19:15:10+01:00</time>
      </trkpt>
      <trkpt lat="44.43644" lon="5.34641">
        <ele>1006</ele>
        <time>2015-11-05T19:15:15+01:00</time>
      </trkpt>
      <trkpt lat="44.43725" lon="5.34604">
        <ele>1013</ele>
        <time>2015-11-05T19:15:20+01:00</time>
      </trkpt>
      <trkpt lat="44.4378" lon="5.34608">
        <ele>1010</ele>
        <time>2015-11-05T19:15:25+01:00</time>
      </trkpt>
      <trkpt lat="44.43831" lon="5.34565">
        <ele>1029</ele>
        <time>2015-11-05T19:15:30+01:00</time>
      </trkpt>
      <trkpt lat="44.43901" lon="5.34509">
        <ele>1031</ele>
        <time>2015-11-05T19:15:35+01:00</time>
      </trkpt>
      <trkpt lat="44.43934" lon="5.34396">
        <ele>1019</ele>
        <time>2015-11-05T19:15:40+01:00</time>
      </trkpt>
      <trkpt lat="44.43917" lon="5.34286">
        <ele>998</ele>
        <time>2015-11-05T19:15:45+01:00</time>
      </trkpt>
      <trkpt lat="44.43898" lon="5.34208">
        <ele>977</ele>
        <time>2015-11-05T19:15:50+01:00</time>
      </trkpt>
      <trkpt lat="44.43901" lon="5.34168">
        <ele>969</ele>
        <time>2015-11-05T19:15:55+01:00</time>
      </trkpt>
      <trkpt lat="44.43882" lon="5.34107">
        <ele>963</ele>
        <time>2015-11-05T19:16:00+01:00</time>
      </trkpt>
      <trkpt lat="44.43874" lon="5.34045">
        <ele>964</ele>
        <time>2015-11-05T19:16:05+01:00</time>
      </trkpt>
      <trkpt lat="44.43911" lon="5.33999">
        <ele>970</ele>
        <time>2015-11-05T19:16:10+01:00</time>
      </trkpt>
      <trkpt lat="44.44021" lon="5.3405">
        <ele>955</ele>
        <time>2015-11-05T19:16:15+01:00</time>
      </trkpt>
      <trkpt lat="44.44106" lon="5.34039">
        <ele>955</ele>
        <time>2015-11-05T19:16:20+01:00</time>
      </trkpt>
      <trkpt lat="44.44162" lon="5.3409">
        <ele>934</ele>
        <time>2015-11-05T19:16:25+01:00</time>
      </trkpt>
      <trkpt lat="44.44221" lon="5.34195">
        <ele>901</ele>
        <time>2015-11-05T19:16:30+01:00</time>
      </trkpt>
      <trkpt lat="44.44231" lon="5.34251">
        <ele>886</ele>
        <time>2015-11-05T19:16:35+01:00</time>
      </trkpt>
      <trkpt lat="44.44211" lon="5.34289">
        <ele>881</ele>
        <time>2015-11-05T19:16:40+01:00</time>
      </trkpt>
      <trkpt lat="44.44248" lon="5.34279">
        <ele>881</ele>
        <time>2015-11-05T19:16:45+01:00</time>
      </trkpt>
      <trkpt lat="44.44384" lon="5.34328">
        <ele>875</ele>
        <time>2015-11-05T19:16:50+01:00</time>
      </trkpt>
      <trkpt lat="44.44388" lon="5.34359">
        <ele>866</ele>
        <time>2015-11-05T19:16:55+01:00</time>
      </trkpt>
      <trkpt lat="44.44426" lon="5.34354">
        <ele>868</ele>
        <time>2015-11-05T19:17:00+01:00</time>
      </trkpt>
      <trkpt lat="44.44487" lon="5.34349">
        <ele>871</ele>
        <time>2015-11-05T19:17:05+01:00</time>
      </trkpt>
      <trkpt lat="44.44532" lon="5.3428">
        <ele>887</ele>
        <time>2015-11-05T19:17:10+01:00</time>
      </trkpt>
      <trkpt lat="44.44559" lon="5.3429">
        <ele>882</ele>
        <time>2015-11-05T19:17:15+01:00</time>
      </trkpt>
      <trkpt lat="44.44572" lon="5.34271">
        <ele>886</ele>
        <time>2015-11-05T19:17:20+01:00</time>
      </trkpt>
      <trkpt lat="44.44623" lon="5.34229">
        <ele>890</ele>
        <time>2015-11-05T19:17:25+01:00</time>
      </trkpt>
      <trkpt lat="44.44724" lon="5.34182">
        <ele>887</ele>
        <time>2015-11-05T19:17:30+01:00</time>
      </trkpt>
      <trkpt lat="44.44751" lon="5.34146">
        <ele>891</ele>
        <time>2015-11-05T19:17:35+01:00</time>
      </trkpt>
      <trkpt lat="44.44792" lon="5.34149">
        <ele>892</ele>
        <time>2015-11-05T19:17:40+01:00</time>
      </trkpt>
      <trkpt lat="44.44824" lon="5.34161">
        <ele>889</ele>
        <time>2015-11-05T19:17:45+01:00</time>
      </trkpt>
      <trkpt lat="44.44861" lon="5.34221">
        <ele>877</ele>
        <time>2015-11-05T19:17:50+01:00</time>
      </trkpt>
      <trkpt lat="44.44885" lon="5.34199">
        <ele>884</ele>
        <time>2015-11-05T19:17:55+01:00</time>
      </trkpt>
      <trkpt lat="44.44922" lon="5.34172">
        <ele>892</ele>
        <time>2015-11-05T19:18:00+01:00</time>
      </trkpt>
      <trkpt lat="44.44926" lon="5.34144">
        <ele>898</ele>
        <time>2015-11-05T19:18:05+01:00</time>
      </trkpt>
      <trkpt lat="44.44954" lon="5.34122">
        <ele>905</ele>
        <time>2015-11-05T19:18:10+01:00</time>
      </trkpt>
      <trkpt lat="44.4499" lon="5.34127">
        <ele>905</ele>
        <time>2015-11-05T19:18:15+01:00</time>
      </trkpt>
      <trkpt lat="44.45066" lon="5.34112">
        <ele>911</ele>
        <time>2015-11-05T19:18:20+01:00</time>
      </trkpt>
      <trkpt lat="44.45096" lon="5.34137">
        <ele>905</ele>
        <time>2015-11-05T19:18:25+01:00</time>
      </trkpt>
      <trkpt lat="44.45127" lon="5.3415">
        <ele>903</ele>
        <time>2015-11-05T19:18:30+01:00</time>
      </trkpt>
      <trkpt lat="44.45153" lon="5.34136">
        <ele>906</ele>
        <time>2015-11-05T19:18:35+01:00</time>
      </trkpt>
      <trkpt lat="44.4517" lon="5.34098">
        <ele>915</ele>
        <time>2015-11-05T19:18:40+01:00</time>
      </trkpt>
      <trkpt lat="44.45179" lon="5.34077">
        <ele>919</ele>
        <time>2015-11-05T19:18:45+01:00</time>
      </trkpt>
      <trkpt lat="44.4519" lon="5.34082">
        <ele>917</ele>
        <time>2015-11-05T19:18:50+01:00</time>
      </trkpt>
      <trkpt lat="44.45213" lon="5.34069">
        <ele>920</ele>
        <time>2015-11-05T19:18:55+01:00</time>
      </trkpt>
      <trkpt lat="44.45234" lon="5.34072">
        <ele>918</ele>
        <time>2015-11-05T19:19:00+01:00</time>
      </trkpt>
      <trkpt lat="44.45304" lon="5.34006">
        <ele>933</ele>
        <time>2015-11-05T19:19:05+01:00</time>
      </trkpt>
      <trkpt lat="44.45374" lon="5.33976">
        <ele>945</ele>
        <time>2015-11-05T19:19:10+01:00</time>
      </trkpt>
      <trkpt lat="44.45407" lon="5.33953">
        <ele>953</ele>
        <time>2015-11-05T19:19:15+01:00</time>
      </trkpt>
      <trkpt lat="44.45429" lon="5.3393">
        <ele>958</ele>
        <time>2015-11-05T19:19:20+01:00</time>
      </trkpt>
      <trkpt lat="44.45445" lon="5.33929">
        <ele>960</ele>
        <time>2015-11-05T19:19:25+01:00</time>
      </trkpt>
      <trkpt lat="44.45496" lon="5.33899">
        <ele>967</ele>
        <time>2015-11-05T19:19:30+01:00</time>
      </trkpt>
      <trkpt lat="44.4551" lon="5.33932">
        <ele>971</ele>
        <time>2015-11-05T19:19:35+01:00</time>
      </trkpt>
      <trkpt lat="44.45534" lon="5.33945">
        <ele>982</ele>
        <time>2015-11-05T19:19:40+01:00</time>
      </trkpt>
      <trkpt lat="44.45599" lon="5.33793">
        <ele>1000</ele>
        <time>2015-11-05T19:19:45+01:00</time>
      </trkpt>
      <trkpt lat="44.45612" lon="5.33733">
        <ele>1003</ele>
        <time>2015-11-05T19:19:50+01:00</time>
      </trkpt>
      <trkpt lat="44.45629" lon="5.33692">
        <ele>1004</ele>
        <time>2015-11-05T19:19:55+01:00</time>
      </trkpt>
      <trkpt lat="44.4566" lon="5.33691">
        <ele>1002</ele>
        <time>2015-11-05T19:20:00+01:00</time>
      </trkpt>
      <trkpt lat="44.45707" lon="5.33668">
        <ele>1000</ele>
        <time>2015-11-05T19:20:05+01:00</time>
      </trkpt>
      <trkpt lat="44.45735" lon="5.33605">
        <ele>987</ele>
        <time>2015-11-05T19:20:10+01:00</time>
      </trkpt>
      <trkpt lat="44.45754" lon="5.33508">
        <ele>964</ele>
        <time>2015-11-05T19:20:15+01:00</time>
      </trkpt>
      <trkpt lat="44.45789" lon="5.33463">
        <ele>963</ele>
        <time>2015-11-05T19:20:20+01:00</time>
      </trkpt>
      <trkpt lat="44.45818" lon="5.33343">
        <ele>940</ele>
        <time>2015-11-05T19:20:25+01:00</time>
      </trkpt>
      <trkpt lat="44.45855" lon="5.33214">
        <ele>925</ele>
        <time>2015-11-05T19:20:30+01:00</time>
      </trkpt>
      <trkpt lat="44.45873" lon="5.33084">
        <ele>918</ele>
        <time>2015-11-05T19:20:35+01:00</time>
      </trkpt>
      <trkpt lat="44.45869" lon="5.33007">
        <ele>911</ele>
        <time>2015-11-05T19:20:40+01:00</time>
      </trkpt>
      <trkpt lat="44.45871" lon="5.32951">
        <ele>907</ele>
        <time>2015-11-05T19:20:45+01:00</time>
      </trkpt>
      <trkpt lat="44.45857" lon="5.32901">
        <ele>900</ele>
        <time>2015-11-05T19:20:50+01:00</time>
      </trkpt>
      <trkpt lat="44.45859" lon="5.32858">
        <ele>898</ele>
        <time>2015-11-05T19:20:55+01:00</time>
      </trkpt>
      <trkpt lat="44.45846" lon="5.32739">
        <ele>881</ele>
        <time>2015-11-05T19:21:00+01:00</time>
      </trkpt>
      <trkpt lat="44.45857" lon="5.32632">
        <ele>871</ele>
        <time>2015-11-05T19:21:05+01:00</time>
      </trkpt>
      <trkpt lat="44.45874" lon="5.32545">
        <ele>862</ele>
        <time>2015-11-05T19:21:10+01:00</time>
      </trkpt>
      <trkpt lat="44.4587" lon="5.32504">
        <ele>857</ele>
        <time>2015-11-05T19:21:15+01:00</time>
      </trkpt>
      <trkpt lat="44.45874" lon="5.32461">
        <ele>851</ele>
        <time>2015-11-05T19:21:20+01:00</time>
      </trkpt>
      <trkpt lat="44.45904" lon="5.32372">
        <ele>839</ele>
        <time>2015-11-05T19:21:25+01:00</time>
      </trkpt>
      <trkpt lat="44.45928" lon="5.32276">
        <ele>837</ele>
        <time>2015-11-05T19:21:30+01:00</time>
      </trkpt>
      <trkpt lat="44.45945" lon="5.32124">
        <ele>829</ele>
        <time>2015-11-05T19:21:35+01:00</time>
      </trkpt>
      <trkpt lat="44.45978" lon="5.31993">
        <ele>824</ele>
        <time>2015-11-05T19:21:40+01:00</time>
      </trkpt>
      <trkpt lat="44.45983" lon="5.31844">
        <ele>819</ele>
        <time>2015-11-05T19:21:45+01:00</time>
      </trkpt>
      <trkpt lat="44.45969" lon="5.31808">
        <ele>815</ele>
        <time>2015-11-05T19:21:50+01:00</time>
      </trkpt>
      <trkpt lat="44.45941" lon="5.3176">
        <ele>806</ele>
        <time>2015-11-05T19:21:55+01:00</time>
      </trkpt>
      <trkpt lat="44.45935" lon="5.31729">
        <ele>802</ele>
        <time>2015-11-05T19:22:00+01:00</time>
      </trkpt>
      <trkpt lat="44.45918" lon="5.31706">
        <ele>796</ele>
        <time>2015-11-05T19:22:05+01:00</time>
      </trkpt>
      <trkpt lat="44.45895" lon="5.31712">
        <ele>794</ele>
        <time>2015-11-05T19:22:10+01:00</time>
      </trkpt>
      <trkpt lat="44.45873" lon="5.317">
        <ele>790</ele>
        <time>2015-11-05T19:22:15+01:00</time>
      </trkpt>
      <trkpt lat="44.45845" lon="5.31634">
        <ele>781</ele>
        <time>2015-11-05T19:22:20+01:00</time>
      </trkpt>
      <trkpt lat="44.45822" lon="5.3156">
        <ele>776</ele>
        <time>2015-11-05T19:22:25+01:00</time>
      </trkpt>
      <trkpt lat="44.45794" lon="5.31589">
        <ele>776</ele>
        <time>2015-11-05T19:22:30+01:00</time>
      </trkpt>
      <trkpt lat="44.45738" lon="5.31582">
        <ele>775</ele>
        <time>2015-11-05T19:22:35+01:00</time>
      </trkpt>
      <trkpt lat="44.45692" lon="5.31607">
        <ele>774</ele>
        <time>2015-11-05T19:22:40+01:00</time>
      </trkpt>
      <trkpt lat="44.4567" lon="5.31584">
        <ele>772</ele>
        <time>2015-11-05T19:22:45+01:00</time>
      </trkpt>
      <trkpt lat="44.45648" lon="5.3158">
        <ele>773</ele>
        <time>2015-11-05T19:22:50+01:00</time>
      </trkpt>
      <trkpt lat="44.45626" lon="5.31613">
        <ele>773</ele>
        <time>2015-11-05T19:22:55+01:00</time>
      </trkpt>
      <trkpt lat="44.45591" lon="5.31667">
        <ele>771</ele>
        <time>2015-11-05T19:23:00+01:00</time>
      </trkpt>
      <trkpt lat="44.45548" lon="5.31666">
        <ele>770</ele>
        <time>2015-11-05T19:23:05+01:00</time>
      </trkpt>
      <trkpt lat="44.45492" lon="5.31695">
        <ele>773</ele>
        <time>2015-11-05T19:23:10+01:00</time>
      </trkpt>
      <trkpt lat="44.45463" lon="5.31678">
        <ele>772</ele>
        <time>2015-11-05T19:23:15+01:00</time>
      </trkpt>
      <trkpt lat="44.4542" lon="5.31677">
        <ele>775</ele>
        <time>2015-11-05T19:23:20+01:00</time>
      </trkpt>
      <trkpt lat="44.45363" lon="5.31655">
        <ele>777</ele>
        <time>2015-11-05T19:23:25+01:00</time>
      </trkpt>
      <trkpt lat="44.45342" lon="5.31633">
        <ele>776</ele>
        <time>2015-11-05T19:23:30+01:00</time>
      </trkpt>
      <trkpt lat="44.45315" lon="5.31621">
        <ele>774</ele>
        <time>2015-11-05T19:23:35+01:00</time>
      </trkpt>
      <trkpt lat="44.45263" lon="5.31626">
        <ele>774</ele>
        <time>2015-11-05T19:23:40+01:00</time>
      </trkpt>
      <trkpt lat="44.45239" lon="5.31646">
        <ele>776</ele>
        <time>2015-11-05T19:23:45+01:00</time>
      </trkpt>
      <trkpt lat="44.45135" lon="5.31663">
        <ele>770</ele>
        <time>2015-11-05T19:23:50+01:00</time>
      </trkpt>
      <trkpt lat="44.45087" lon="5.31699">
        <ele>775</ele>
        <time>2015-11-05T19:23:55+01:00</time>
      </trkpt>
      <trkpt lat="44.45044" lon="5.31715">
        <ele>780</ele>
        <time>2015-11-05T19:24:00+01:00</time>
      </trkpt>
      <trkpt lat="44.45015" lon="5.31697">
        <ele>776</ele>
        <time>2015-11-05T19:24:05+01:00</time>
      </trkpt>
      <trkpt lat="44.45008" lon="5.31703">
        <ele>778</ele>
        <time>2015-11-05T19:24:10+01:00</time>
      </trkpt>
      <trkpt lat="44.45011" lon="5.31742">
        <ele>788</ele>
        <time>2015-11-05T19:24:15+01:00</time>
      </trkpt>
      <trkpt lat="44.44968" lon="5.31775">
        <ele>791</ele>
        <time>2015-11-05T19:24:20+01:00</time>
      </trkpt>
      <trkpt lat="44.44935" lon="5.31805">
        <ele>792</ele>
        <time>2015-11-05T19:24:25+01:00</time>
      </trkpt>
      <trkpt lat="44.44903" lon="5.31858">
        <ele>799</ele>
        <time>2015-11-05T19:24:30+01:00</time>
      </trkpt>
      <trkpt lat="44.44801" lon="5.31957">
        <ele>811</ele>
        <time>2015-11-05T19:24:35+01:00</time>
      </trkpt>
      <trkpt lat="44.44702" lon="5.32016">
        <ele>817</ele>
        <time>2015-11-05T19:24:40+01:00</time>
      </trkpt>
      <trkpt lat="44.44615" lon="5.32065">
        <ele>824</ele>
        <time>2015-11-05T19:24:45+01:00</time>
      </trkpt>
      <trkpt lat="44.44548" lon="5.32142">
        <ele>828</ele>
        <time>2015-11-05T19:24:50+01:00</time>
      </trkpt>
      <trkpt lat="44.4451" lon="5.32228">
        <ele>831</ele>
        <time>2015-11-05T19:24:55+01:00</time>
      </trkpt>
      <trkpt lat="44.44482" lon="5.32249">
        <ele>828</ele>
        <time>2015-11-05T19:25:00+01:00</time>
      </trkpt>
      <trkpt lat="44.44461" lon="5.32306">
        <ele>825</ele>
        <time>2015-11-05T19:25:05+01:00</time>
      </trkpt>
      <trkpt lat="44.44449" lon="5.32373">
        <ele>829</ele>
        <time>2015-11-05T19:25:10+01:00</time>
      </trkpt>
      <trkpt lat="44.44424" lon="5.32406">
        <ele>826</ele>
        <time>2015-11-05T19:25:15+01:00</time>
      </trkpt>
      <trkpt lat="44.44329" lon="5.32518">
        <ele>829</ele>
        <time>2015-11-05T19:25:20+01:00</time>
      </trkpt>
      <trkpt lat="44.44306" lon="5.32516">
        <ele>830</ele>
        <time>2015-11-05T19:25:25+01:00</time>
      </trkpt>
      <trkpt lat="44.442" lon="5.32503">
        <ele>833</ele>
        <time>2015-11-05T19:25:30+01:00</time>
      </trkpt>
      <trkpt lat="44.44168" lon="5.32485">
        <ele>831</ele>
        <time>2015-11-05T19:25:35+01:00</time>
      </trkpt>
      <trkpt lat="44.44111" lon="5.32496">
        <ele>830</ele>
        <time>2015-11-05T19:25:40+01:00</time>
      </trkpt>
      <trkpt lat="44.4407" lon="5.32516">
        <ele>828</ele>
        <time>2015-11-05T19:25:45+01:00</time>
      </trkpt>
      <trkpt lat="44.44052" lon="5.3255">
        <ele>828</ele>
        <time>2015-11-05T19:25:50+01:00</time>
      </trkpt>
      <trkpt lat="44.44027" lon="5.32567">
        <ele>824</ele>
        <time>2015-11-05T19:25:55+01:00</time>
      </trkpt>
      <trkpt lat="44.44036" lon="5.32628">
        <ele>833</ele>
        <time>2015-11-05T19:26:00+01:00</time>
      </trkpt>
      <trkpt lat="44.44025" lon="5.32676">
        <ele>836</ele>
        <time>2015-11-05T19:26:05+01:00</time>
      </trkpt>
      <trkpt lat="44.43989" lon="5.32683">
        <ele>833</ele>
        <time>2015-11-05T19:26:10+01:00</time>
      </trkpt>
      <trkpt lat="44.43954" lon="5.32687">
        <ele>837</ele>
        <time>2015-11-05T19:26:15+01:00</time>
      </trkpt>
      <trkpt lat="44.4392" lon="5.32673">
        <ele>835</ele>
        <time>2015-11-05T19:26:20+01:00</time>
      </trkpt>
      <trkpt lat="44.43904" lon="5.32655">
        <ele>831</ele>
        <time>2015-11-05T19:26:25+01:00</time>
      </trkpt>
      <trkpt lat="44.43829" lon="5.32613">
        <ele>830</ele>
        <time>2015-11-05T19:26:30+01:00</time>
      </trkpt>
      <trkpt lat="44.43794" lon="5.32574">
        <ele>824</ele>
        <time>2015-11-05T19:26:35+01:00</time>
      </trkpt>
      <trkpt lat="44.43771" lon="5.32517">
        <ele>813</ele>
        <time>2015-11-05T19:26:40+01:00</time>
      </trkpt>
      <trkpt lat="44.4374" lon="5.32513">
        <ele>816</ele>
        <time>2015-11-05T19:26:45+01:00</time>
      </trkpt>
      <trkpt lat="44.43636" lon="5.32473">
        <ele>807</ele>
        <time>2015-11-05T19:26:50+01:00</time>
      </trkpt>
      <trkpt lat="44.43611" lon="5.32494">
        <ele>804</ele>
        <time>2015-11-05T19:26:55+01:00</time>
      </trkpt>
      <trkpt lat="44.4357" lon="5.32569">
        <ele>796</ele>
        <time>2015-11-05T19:27:00+01:00</time>
      </trkpt>
      <trkpt lat="44.43565" lon="5.32554">
        <ele>792</ele>
        <time>2015-11-05T19:27:05+01:00</time>
      </trkpt>
      <trkpt lat="44.43549" lon="5.32578">
        <ele>784</ele>
        <time>2015-11-05T19:27:10+01:00</time>
      </trkpt>
      <trkpt lat="44.43543" lon="5.32547">
        <ele>781</ele>
        <time>2015-11-05T19:27:15+01:00</time>
      </trkpt>
      <trkpt lat="44.43508" lon="5.32619">
        <ele>763</ele>
        <time>2015-11-05T19:27:20+01:00</time>
      </trkpt>
      <trkpt lat="44.43503" lon="5.32669">
        <ele>763</ele>
        <time>2015-11-05T19:27:25+01:00</time>
      </trkpt>
      <trkpt lat="44.43492" lon="5.32718">
        <ele>762</ele>
        <time>2015-11-05T19:27:30+01:00</time>
      </trkpt>
      <trkpt lat="44.43418" lon="5.32858">
        <ele>721</ele>
        <time>2015-11-05T19:27:35+01:00</time>
      </trkpt>
      <trkpt lat="44.43416" lon="5.32936">
        <ele>715</ele>
        <time>2015-11-05T19:27:40+01:00</time>
      </trkpt>
      <trkpt lat="44.43419" lon="5.32956">
        <ele>716</ele>
        <time>2015-11-05T19:27:45+01:00</time>
      </trkpt>
      <trkpt lat="44.43413" lon="5.33038">
        <ele>711</ele>
        <time>2015-11-05T19:27:50+01:00</time>
      </trkpt>
      <trkpt lat="44.43385" lon="5.33086">
        <ele>697</ele>
        <time>2015-11-05T19:27:55+01:00</time>
      </trkpt>
      <trkpt lat="44.4336" lon="5.33091">
        <ele>684</ele>
        <time>2015-11-05T19:28:00+01:00</time>
      </trkpt>
      <trkpt lat="44.43334" lon="5.3301">
        <ele>661</ele>
        <time>2015-11-05T19:28:05+01:00</time>
      </trkpt>
      <trkpt lat="44.4335" lon="5.32968">
        <ele>671</ele>
        <time>2015-11-05T19:28:10+01:00</time>
      </trkpt>
      <trkpt lat="44.43346" lon="5.32953">
        <ele>669</ele>
        <time>2015-11-05T19:28:15+01:00</time>
      </trkpt>
      <trkpt lat="44.43325" lon="5.3295">
        <ele>657</ele>
        <time>2015-11-05T19:28:20+01:00</time>
      </trkpt>
      <trkpt lat="44.43306" lon="5.32936">
        <ele>648</ele>
        <time>2015-11-05T19:28:25+01:00</time>
      </trkpt>
      <trkpt lat="44.43303" lon="5.32921">
        <ele>646</ele>
        <time>2015-11-05T19:28:30+01:00</time>
      </trkpt>
      <trkpt lat="44.43288" lon="5.32901">
        <ele>638</ele>
        <time>2015-11-05T19:28:35+01:00</time>
      </trkpt>
      <trkpt lat="44.43281" lon="5.32914">
        <ele>634</ele>
        <time>2015-11-05T19:28:40+01:00</time>
      </trkpt>
      <trkpt lat="44.4328" lon="5.32895">
        <ele>633</ele>
        <time>2015-11-05T19:28:45+01:00</time>
      </trkpt>
      <trkpt lat="44.43259" lon="5.32849">
        <ele>620</ele>
        <time>2015-11-05T19:28:50+01:00</time>
      </trkpt>
      <trkpt lat="44.43251" lon="5.32765">
        <ele>614</ele>
        <time>2015-11-05T19:28:55+01:00</time>
      </trkpt>
      <trkpt lat="44.43238" lon="5.32772">
        <ele>608</ele>
        <time>2015-11-05T19:29:00+01:00</time>
      </trkpt>
      <trkpt lat="44.43209" lon="5.3284">
        <ele>600</ele>
        <time>2015-11-05T19:29:05+01:00</time>
      </trkpt>
      <trkpt lat="44.43205" lon="5.32855">
        <ele>601</ele>
        <time>2015-11-05T19:29:10+01:00</time>
      </trkpt>
      <trkpt lat="44.43213" lon="5.32927">
        <ele>615</ele>
        <time>2015-11-05T19:29:15+01:00</time>
      </trkpt>
      <trkpt lat="44.43203" lon="5.32933">
        <ele>615</ele>
        <time>2015-11-05T19:29:20+01:00</time>
      </trkpt>
      <trkpt lat="44.43171" lon="5.32904">
        <ele>603</ele>
        <time>2015-11-05T19:29:25+01:00</time>
      </trkpt>
      <trkpt lat="44.43144" lon="5.32895">
        <ele>605</ele>
        <time>2015-11-05T19:29:30+01:00</time>
      </trkpt>
      <trkpt lat="44.4313" lon="5.32879">
        <ele>604</ele>
        <time>2015-11-05T19:29:35+01:00</time>
      </trkpt>
      <trkpt lat="44.43111" lon="5.32851">
        <ele>600</ele>
        <time>2015-11-05T19:29:40+01:00</time>
      </trkpt>
      <trkpt lat="44.43074" lon="5.32831">
        <ele>604</ele>
        <time>2015-11-05T19:29:45+01:00</time>
      </trkpt>
      <trkpt lat="44.43062" lon="5.32805">
        <ele>598</ele>
        <time>2015-11-05T19:29:50+01:00</time>
      </trkpt>
      <trkpt lat="44.43042" lon="5.32789">
        <ele>600</ele>
        <time>2015-11-05T19:29:55+01:00</time>
      </trkpt>
      <trkpt lat="44.43011" lon="5.32763">
        <ele>605</ele>
        <time>2015-11-05T19:30:00+01:00</time>
      </trkpt>
      <trkpt lat="44.42969" lon="5.32759">
        <ele>614</ele>
        <time>2015-11-05T19:30:05+01:00</time>
      </trkpt>
      <trkpt lat="44.42944" lon="5.32749">
        <ele>617</ele>
        <time>2015-11-05T19:30:10+01:00</time>
      </trkpt>
      <trkpt lat="44.42922" lon="5.32755">
        <ele>623</ele>
        <time>2015-11-05T19:30:15+01:00</time>
      </trkpt>
      <trkpt lat="44.42897" lon="5.32781">
        <ele>627</ele>
        <time>2015-11-05T19:30:20+01:00</time>
      </trkpt>
      <trkpt lat="44.42884" lon="5.32799">
        <ele>628</ele>
        <time>2015-11-05T19:30:25+01:00</time>
      </trkpt>
      <trkpt lat="44.42876" lon="5.32853">
        <ele>630</ele>
        <time>2015-11-05T19:30:30+01:00</time>
      </trkpt>
    </trkseg>
  </trk>
</gpx>